sensor_id;sensor_type;location;lat;lon;timestamp;P1;durP1;ratioP1;P2;durP2;ratioP2
47167;SDS011;32931;47.778;17.806;2023-07-13T00:00:49;6.30;;;2.28;;
47167;SDS011;32931;47.778;17.806;2023-07-13T00:03:15;6.43;;;2.30;;
47167;SDS011;32931;47.778;17.806;2023-07-13T00:05:42;3.63;;;2.03;;
47167;SDS011;32931;47.778;17.806;2023-07-13T00:08:08;4.63;;;2.20;;
47167;SDS011;32931;47.778;17.806;2023-07-13T00:10:40;6.05;;;2.00;;
47167;SDS011;32931;47.778;17.806;2023-07-13T00:13:08;7.40;;;2.05;;
47167;SDS011;32931;47.778;17.806;2023-07-13T00:15:34;7.60;;;2.13;;
47167;SDS011;32931;47.778;17.806;2023-07-13T00:18:01;10.23;;;2.53;;
47167;SDS011;32931;47.778;17.806;2023-07-13T00:20:27;11.80;;;2.40;;
47167;SDS011;32931;47.778;17.806;2023-07-13T00:22:53;6.32;;;2.35;;
47167;SDS011;32931;47.778;17.806;2023-07-13T00:25:20;5.50;;;2.20;;
47167;SDS011;32931;47.778;17.806;2023-07-13T00:27:47;10.45;;;2.17;;
47167;SDS011;32931;47.778;17.806;2023-07-13T00:30:16;6.30;;;2.72;;
47167;SDS011;32931;47.778;17.806;2023-07-13T00:32:43;8.30;;;2.35;;
47167;SDS011;32931;47.778;17.806;2023-07-13T00:35:09;6.63;;;2.65;;
47167;SDS011;32931;47.778;17.806;2023-07-13T00:37:36;10.82;;;2.20;;
47167;SDS011;32931;47.778;17.806;2023-07-13T00:40:02;7.65;;;2.20;;
47167;SDS011;32931;47.778;17.806;2023-07-13T00:42:30;9.85;;;2.67;;
47167;SDS011;32931;47.778;17.806;2023-07-13T00:45:07;8.63;;;2.63;;
47167;SDS011;32931;47.778;17.806;2023-07-13T00:47:36;4.78;;;2.03;;
47167;SDS011;32931;47.778;17.806;2023-07-13T00:50:03;8.25;;;2.97;;
47167;SDS011;32931;47.778;17.806;2023-07-13T00:52:32;8.85;;;2.72;;
47167;SDS011;32931;47.778;17.806;2023-07-13T00:54:59;4.88;;;2.42;;
47167;SDS011;32931;47.778;17.806;2023-07-13T00:57:25;6.32;;;2.70;;
47167;SDS011;32931;47.778;17.806;2023-07-13T00:59:53;7.35;;;2.80;;
47167;SDS011;32931;47.778;17.806;2023-07-13T01:02:24;6.13;;;2.70;;
47167;SDS011;32931;47.778;17.806;2023-07-13T01:04:51;6.50;;;2.67;;
47167;SDS011;32931;47.778;17.806;2023-07-13T01:07:17;7.93;;;3.00;;
47167;SDS011;32931;47.778;17.806;2023-07-13T01:09:44;13.73;;;2.83;;
47167;SDS011;32931;47.778;17.806;2023-07-13T01:12:11;8.10;;;2.70;;
47167;SDS011;32931;47.778;17.806;2023-07-13T01:14:37;5.82;;;2.65;;
47167;SDS011;32931;47.778;17.806;2023-07-13T01:17:04;7.93;;;2.58;;
47167;SDS011;32931;47.778;17.806;2023-07-13T01:19:41;4.97;;;2.35;;
47167;SDS011;32931;47.778;17.806;2023-07-13T01:22:10;7.13;;;2.20;;
47167;SDS011;32931;47.778;17.806;2023-07-13T01:24:41;8.13;;;2.03;;
47167;SDS011;32931;47.778;17.806;2023-07-13T01:27:08;7.20;;;2.30;;
47167;SDS011;32931;47.778;17.806;2023-07-13T01:29:36;5.82;;;2.70;;
47167;SDS011;32931;47.778;17.806;2023-07-13T01:32:08;15.63;;;2.58;;
47167;SDS011;32931;47.778;17.806;2023-07-13T01:34:35;16.17;;;2.35;;
47167;SDS011;32931;47.778;17.806;2023-07-13T01:37:03;9.63;;;2.55;;
47167;SDS011;32931;47.778;17.806;2023-07-13T01:39:32;4.35;;;1.98;;
47167;SDS011;32931;47.778;17.806;2023-07-13T01:41:59;6.35;;;2.80;;
47167;SDS011;32931;47.778;17.806;2023-07-13T01:44:25;9.63;;;3.00;;
47167;SDS011;32931;47.778;17.806;2023-07-13T01:46:52;6.15;;;2.60;;
47167;SDS011;32931;47.778;17.806;2023-07-13T01:49:18;9.95;;;2.70;;
47167;SDS011;32931;47.778;17.806;2023-07-13T01:51:44;11.02;;;3.03;;
47167;SDS011;32931;47.778;17.806;2023-07-13T01:54:10;9.02;;;3.17;;
47167;SDS011;32931;47.778;17.806;2023-07-13T01:56:36;17.92;;;3.63;;
47167;SDS011;32931;47.778;17.806;2023-07-13T01:59:02;14.93;;;3.15;;
47167;SDS011;32931;47.778;17.806;2023-07-13T02:01:28;11.27;;;3.13;;
47167;SDS011;32931;47.778;17.806;2023-07-13T02:03:54;7.03;;;2.63;;
47167;SDS011;32931;47.778;17.806;2023-07-13T02:06:20;8.65;;;2.80;;
47167;SDS011;32931;47.778;17.806;2023-07-13T02:08:47;14.25;;;3.20;;
47167;SDS011;32931;47.778;17.806;2023-07-13T02:11:13;12.35;;;3.30;;
47167;SDS011;32931;47.778;17.806;2023-07-13T02:13:39;11.98;;;3.05;;
47167;SDS011;32931;47.778;17.806;2023-07-13T02:16:05;8.65;;;2.95;;
47167;SDS011;32931;47.778;17.806;2023-07-13T02:18:32;15.85;;;3.50;;
47167;SDS011;32931;47.778;17.806;2023-07-13T02:20:58;8.60;;;3.55;;
47167;SDS011;32931;47.778;17.806;2023-07-13T02:23:24;6.20;;;3.10;;
47167;SDS011;32931;47.778;17.806;2023-07-13T02:25:54;6.50;;;3.10;;
47167;SDS011;32931;47.778;17.806;2023-07-13T02:28:21;6.30;;;3.55;;
47167;SDS011;32931;47.778;17.806;2023-07-13T02:30:47;9.60;;;3.30;;
47167;SDS011;32931;47.778;17.806;2023-07-13T02:33:13;6.88;;;2.80;;
47167;SDS011;32931;47.778;17.806;2023-07-13T02:35:39;5.15;;;2.67;;
47167;SDS011;32931;47.778;17.806;2023-07-13T02:38:06;8.82;;;3.42;;
47167;SDS011;32931;47.778;17.806;2023-07-13T02:40:32;20.85;;;3.42;;
47167;SDS011;32931;47.778;17.806;2023-07-13T02:42:59;8.52;;;3.70;;
47167;SDS011;32931;47.778;17.806;2023-07-13T02:45:25;7.15;;;3.30;;
47167;SDS011;32931;47.778;17.806;2023-07-13T02:47:52;12.75;;;3.88;;
47167;SDS011;32931;47.778;17.806;2023-07-13T02:50:18;10.40;;;3.60;;
47167;SDS011;32931;47.778;17.806;2023-07-13T02:52:44;18.30;;;3.97;;
47167;SDS011;32931;47.778;17.806;2023-07-13T02:55:10;30.63;;;4.25;;
47167;SDS011;32931;47.778;17.806;2023-07-13T02:57:37;33.20;;;3.95;;
47167;SDS011;32931;47.778;17.806;2023-07-13T03:00:03;22.13;;;3.80;;
47167;SDS011;32931;47.778;17.806;2023-07-13T03:02:31;15.27;;;3.17;;
47167;SDS011;32931;47.778;17.806;2023-07-13T03:04:58;18.95;;;3.50;;
47167;SDS011;32931;47.778;17.806;2023-07-13T03:07:24;21.40;;;3.42;;
47167;SDS011;32931;47.778;17.806;2023-07-13T03:09:54;10.40;;;3.60;;
47167;SDS011;32931;47.778;17.806;2023-07-13T03:12:22;9.80;;;3.60;;
47167;SDS011;32931;47.778;17.806;2023-07-13T03:14:49;12.23;;;4.20;;
47167;SDS011;32931;47.778;17.806;2023-07-13T03:17:15;13.88;;;3.92;;
47167;SDS011;32931;47.778;17.806;2023-07-13T03:19:41;6.65;;;3.03;;
47167;SDS011;32931;47.778;17.806;2023-07-13T03:22:07;9.40;;;3.25;;
47167;SDS011;32931;47.778;17.806;2023-07-13T03:24:34;9.05;;;3.38;;
47167;SDS011;32931;47.778;17.806;2023-07-13T03:27:01;12.15;;;3.60;;
47167;SDS011;32931;47.778;17.806;2023-07-13T03:29:29;10.93;;;3.72;;
47167;SDS011;32931;47.778;17.806;2023-07-13T03:31:55;13.43;;;3.92;;
47167;SDS011;32931;47.778;17.806;2023-07-13T03:34:21;14.30;;;3.80;;
47167;SDS011;32931;47.778;17.806;2023-07-13T03:36:47;8.70;;;3.40;;
47167;SDS011;32931;47.778;17.806;2023-07-13T03:39:13;17.70;;;3.78;;
47167;SDS011;32931;47.778;17.806;2023-07-13T03:41:40;14.48;;;3.50;;
47167;SDS011;32931;47.778;17.806;2023-07-13T03:44:06;20.55;;;3.58;;
47167;SDS011;32931;47.778;17.806;2023-07-13T03:46:32;18.25;;;3.47;;
47167;SDS011;32931;47.778;17.806;2023-07-13T03:48:59;17.98;;;3.72;;
47167;SDS011;32931;47.778;17.806;2023-07-13T03:51:25;24.70;;;3.53;;
47167;SDS011;32931;47.778;17.806;2023-07-13T03:53:51;14.55;;;3.28;;
47167;SDS011;32931;47.778;17.806;2023-07-13T03:56:18;9.05;;;2.83;;
47167;SDS011;32931;47.778;17.806;2023-07-13T03:58:46;23.23;;;3.65;;
47167;SDS011;32931;47.778;17.806;2023-07-13T04:01:13;9.98;;;3.53;;
47167;SDS011;32931;47.778;17.806;2023-07-13T04:03:40;16.85;;;3.88;;
47167;SDS011;32931;47.778;17.806;2023-07-13T04:06:07;62.92;;;6.45;;
47167;SDS011;32931;47.778;17.806;2023-07-13T04:08:47;11.13;;;4.68;;
47167;SDS011;32931;47.778;17.806;2023-07-13T04:11:16;21.65;;;5.53;;
47167;SDS011;32931;47.778;17.806;2023-07-13T04:13:43;14.40;;;4.80;;
47167;SDS011;32931;47.778;17.806;2023-07-13T04:16:10;15.05;;;4.40;;
47167;SDS011;32931;47.778;17.806;2023-07-13T04:18:36;9.45;;;4.35;;
47167;SDS011;32931;47.778;17.806;2023-07-13T04:21:02;12.88;;;4.70;;
47167;SDS011;32931;47.778;17.806;2023-07-13T04:23:28;23.80;;;4.38;;
47167;SDS011;32931;47.778;17.806;2023-07-13T04:25:55;11.93;;;4.47;;
47167;SDS011;32931;47.778;17.806;2023-07-13T04:28:21;39.15;;;4.95;;
47167;SDS011;32931;47.778;17.806;2023-07-13T04:30:49;91.35;;;6.75;;
47167;SDS011;32931;47.778;17.806;2023-07-13T04:33:15;10.82;;;3.55;;
47167;SDS011;32931;47.778;17.806;2023-07-13T04:35:51;27.20;;;3.90;;
47167;SDS011;32931;47.778;17.806;2023-07-13T04:38:26;19.23;;;3.53;;
47167;SDS011;32931;47.778;17.806;2023-07-13T04:40:57;14.40;;;3.70;;
47167;SDS011;32931;47.778;17.806;2023-07-13T04:43:28;37.95;;;4.38;;
47167;SDS011;32931;47.778;17.806;2023-07-13T04:45:55;12.02;;;4.38;;
47167;SDS011;32931;47.778;17.806;2023-07-13T04:48:21;18.35;;;4.85;;
47167;SDS011;32931;47.778;17.806;2023-07-13T04:50:53;13.07;;;5.28;;
47167;SDS011;32931;47.778;17.806;2023-07-13T04:53:24;13.60;;;5.18;;
47167;SDS011;32931;47.778;17.806;2023-07-13T04:55:51;14.65;;;4.53;;
47167;SDS011;32931;47.778;17.806;2023-07-13T04:58:17;18.50;;;5.60;;
47167;SDS011;32931;47.778;17.806;2023-07-13T05:00:43;20.88;;;5.95;;
47167;SDS011;32931;47.778;17.806;2023-07-13T05:03:09;18.70;;;6.88;;
47167;SDS011;32931;47.778;17.806;2023-07-13T05:05:35;22.60;;;8.05;;
47167;SDS011;32931;47.778;17.806;2023-07-13T05:08:01;17.27;;;6.28;;
47167;SDS011;32931;47.778;17.806;2023-07-13T05:10:28;20.73;;;7.00;;
47167;SDS011;32931;47.778;17.806;2023-07-13T05:12:54;23.02;;;7.25;;
47167;SDS011;32931;47.778;17.806;2023-07-13T05:15:23;18.88;;;6.90;;
47167;SDS011;32931;47.778;17.806;2023-07-13T05:17:51;34.17;;;9.90;;
47167;SDS011;32931;47.778;17.806;2023-07-13T05:20:17;18.73;;;6.68;;
47167;SDS011;32931;47.778;17.806;2023-07-13T05:22:44;32.50;;;8.70;;
47167;SDS011;32931;47.778;17.806;2023-07-13T05:25:12;19.73;;;5.55;;
47167;SDS011;32931;47.778;17.806;2023-07-13T05:27:39;24.88;;;6.15;;
47167;SDS011;32931;47.778;17.806;2023-07-13T05:30:05;13.90;;;4.53;;
47167;SDS011;32931;47.778;17.806;2023-07-13T05:32:32;17.83;;;6.00;;
47167;SDS011;32931;47.778;17.806;2023-07-13T05:34:58;10.57;;;4.70;;
47167;SDS011;32931;47.778;17.806;2023-07-13T05:37:25;12.43;;;5.35;;
47167;SDS011;32931;47.778;17.806;2023-07-13T05:39:51;19.95;;;5.47;;
47167;SDS011;32931;47.778;17.806;2023-07-13T05:42:17;14.80;;;5.60;;
47167;SDS011;32931;47.778;17.806;2023-07-13T05:44:44;15.40;;;5.22;;
47167;SDS011;32931;47.778;17.806;2023-07-13T05:47:10;13.05;;;5.03;;
47167;SDS011;32931;47.778;17.806;2023-07-13T05:49:36;17.30;;;5.07;;
47167;SDS011;32931;47.778;17.806;2023-07-13T05:52:02;12.32;;;5.30;;
47167;SDS011;32931;47.778;17.806;2023-07-13T05:54:29;14.15;;;5.25;;
47167;SDS011;32931;47.778;17.806;2023-07-13T05:56:55;17.33;;;5.15;;
47167;SDS011;32931;47.778;17.806;2023-07-13T05:59:21;13.18;;;5.25;;
47167;SDS011;32931;47.778;17.806;2023-07-13T06:01:48;15.05;;;4.97;;
47167;SDS011;32931;47.778;17.806;2023-07-13T06:04:14;14.82;;;5.00;;
47167;SDS011;32931;47.778;17.806;2023-07-13T06:06:40;16.88;;;5.25;;
47167;SDS011;32931;47.778;17.806;2023-07-13T06:09:07;12.60;;;5.45;;
47167;SDS011;32931;47.778;17.806;2023-07-13T06:11:33;20.80;;;5.68;;
47167;SDS011;32931;47.778;17.806;2023-07-13T06:14:00;14.18;;;5.28;;
47167;SDS011;32931;47.778;17.806;2023-07-13T06:16:26;12.13;;;4.90;;
47167;SDS011;32931;47.778;17.806;2023-07-13T06:18:52;8.13;;;4.68;;
47167;SDS011;32931;47.778;17.806;2023-07-13T06:21:19;13.13;;;5.00;;
47167;SDS011;32931;47.778;17.806;2023-07-13T06:23:46;12.15;;;4.68;;
47167;SDS011;32931;47.778;17.806;2023-07-13T06:26:14;12.50;;;5.18;;
47167;SDS011;32931;47.778;17.806;2023-07-13T06:28:40;9.57;;;4.38;;
47167;SDS011;32931;47.778;17.806;2023-07-13T06:31:07;8.32;;;4.00;;
47167;SDS011;32931;47.778;17.806;2023-07-13T06:33:35;7.18;;;3.53;;
47167;SDS011;32931;47.778;17.806;2023-07-13T06:36:03;11.60;;;3.75;;
47167;SDS011;32931;47.778;17.806;2023-07-13T06:38:30;9.65;;;4.18;;
47167;SDS011;32931;47.778;17.806;2023-07-13T06:40:57;13.68;;;4.03;;
47167;SDS011;32931;47.778;17.806;2023-07-13T06:43:23;10.55;;;3.50;;
47167;SDS011;32931;47.778;17.806;2023-07-13T06:45:54;6.55;;;3.78;;
47167;SDS011;32931;47.778;17.806;2023-07-13T06:48:21;11.38;;;4.00;;
47167;SDS011;32931;47.778;17.806;2023-07-13T06:50:48;7.30;;;3.13;;
47167;SDS011;32931;47.778;17.806;2023-07-13T06:53:15;6.80;;;3.40;;
47167;SDS011;32931;47.778;17.806;2023-07-13T06:55:43;8.90;;;3.30;;
47167;SDS011;32931;47.778;17.806;2023-07-13T06:58:10;8.75;;;3.67;;
47167;SDS011;32931;47.778;17.806;2023-07-13T07:00:36;10.35;;;3.75;;
47167;SDS011;32931;47.778;17.806;2023-07-13T07:03:05;6.25;;;3.45;;
47167;SDS011;32931;47.778;17.806;2023-07-13T07:05:32;6.00;;;3.35;;
47167;SDS011;32931;47.778;17.806;2023-07-13T07:07:58;6.38;;;3.55;;
47167;SDS011;32931;47.778;17.806;2023-07-13T07:10:25;12.77;;;3.40;;
47167;SDS011;32931;47.778;17.806;2023-07-13T07:12:52;10.45;;;3.85;;
47167;SDS011;32931;47.778;17.806;2023-07-13T07:15:18;8.13;;;3.05;;
47167;SDS011;32931;47.778;17.806;2023-07-13T07:17:44;6.82;;;3.10;;
47167;SDS011;32931;47.778;17.806;2023-07-13T07:20:10;6.50;;;2.95;;
47167;SDS011;32931;47.778;17.806;2023-07-13T07:22:37;9.00;;;3.17;;
47167;SDS011;32931;47.778;17.806;2023-07-13T07:25:03;7.75;;;3.00;;
47167;SDS011;32931;47.778;17.806;2023-07-13T07:27:29;6.28;;;2.67;;
47167;SDS011;32931;47.778;17.806;2023-07-13T07:29:55;4.78;;;2.70;;
47167;SDS011;32931;47.778;17.806;2023-07-13T07:32:23;8.02;;;2.70;;
47167;SDS011;32931;47.778;17.806;2023-07-13T07:34:49;6.63;;;2.45;;
47167;SDS011;32931;47.778;17.806;2023-07-13T07:37:16;7.80;;;2.95;;
47167;SDS011;32931;47.778;17.806;2023-07-13T07:39:42;6.32;;;3.17;;
47167;SDS011;32931;47.778;17.806;2023-07-13T07:42:09;8.93;;;2.80;;
47167;SDS011;32931;47.778;17.806;2023-07-13T07:44:35;11.75;;;3.08;;
47167;SDS011;32931;47.778;17.806;2023-07-13T07:47:01;8.38;;;2.65;;
47167;SDS011;32931;47.778;17.806;2023-07-13T07:49:27;9.48;;;2.97;;
47167;SDS011;32931;47.778;17.806;2023-07-13T07:51:54;4.97;;;2.75;;
47167;SDS011;32931;47.778;17.806;2023-07-13T07:54:20;6.85;;;2.85;;
47167;SDS011;32931;47.778;17.806;2023-07-13T07:56:46;6.93;;;2.60;;
47167;SDS011;32931;47.778;17.806;2023-07-13T07:59:12;5.88;;;2.55;;
47167;SDS011;32931;47.778;17.806;2023-07-13T08:01:38;4.22;;;2.35;;
47167;SDS011;32931;47.778;17.806;2023-07-13T08:04:05;6.35;;;2.95;;
47167;SDS011;32931;47.778;17.806;2023-07-13T08:06:32;4.43;;;2.50;;
47167;SDS011;32931;47.778;17.806;2023-07-13T08:08:59;4.45;;;2.17;;
47167;SDS011;32931;47.778;17.806;2023-07-13T08:11:26;5.53;;;1.90;;
47167;SDS011;32931;47.778;17.806;2023-07-13T08:13:52;7.53;;;1.80;;
47167;SDS011;32931;47.778;17.806;2023-07-13T08:16:19;3.85;;;1.90;;
47167;SDS011;32931;47.778;17.806;2023-07-13T08:18:45;6.28;;;1.83;;
47167;SDS011;32931;47.778;17.806;2023-07-13T08:21:11;4.55;;;1.90;;
47167;SDS011;32931;47.778;17.806;2023-07-13T08:23:38;6.80;;;1.83;;
47167;SDS011;32931;47.778;17.806;2023-07-13T08:26:04;3.25;;;1.90;;
47167;SDS011;32931;47.778;17.806;2023-07-13T08:28:30;5.35;;;2.00;;
47167;SDS011;32931;47.778;17.806;2023-07-13T08:31:02;5.68;;;1.70;;
47167;SDS011;32931;47.778;17.806;2023-07-13T08:33:35;3.92;;;1.77;;
47167;SDS011;32931;47.778;17.806;2023-07-13T08:36:02;8.18;;;1.92;;
47167;SDS011;32931;47.778;17.806;2023-07-13T08:38:28;5.55;;;1.83;;
47167;SDS011;32931;47.778;17.806;2023-07-13T08:40:55;3.90;;;1.90;;
47167;SDS011;32931;47.778;17.806;2023-07-13T08:43:25;3.80;;;1.83;;
47167;SDS011;32931;47.778;17.806;2023-07-13T08:45:54;2.75;;;1.70;;
47167;SDS011;32931;47.778;17.806;2023-07-13T08:49:13;3.35;;;1.70;;
47167;SDS011;32931;47.778;17.806;2023-07-13T08:57:14;5.28;;;2.05;;
47167;SDS011;32931;47.778;17.806;2023-07-13T08:59:43;3.33;;;1.90;;
47167;SDS011;32931;47.778;17.806;2023-07-13T09:04:50;4.03;;;1.90;;
47167;SDS011;32931;47.778;17.806;2023-07-13T09:15:34;3.97;;;2.08;;
47167;SDS011;32931;47.778;17.806;2023-07-13T09:18:27;10.10;;;2.30;;
47167;SDS011;32931;47.778;17.806;2023-07-13T09:20:58;3.92;;;2.25;;
47167;SDS011;32931;47.778;17.806;2023-07-13T09:23:29;3.60;;;2.35;;
47167;SDS011;32931;47.778;17.806;2023-07-13T09:26:00;4.63;;;2.47;;
47167;SDS011;32931;47.778;17.806;2023-07-13T09:28:47;4.00;;;2.00;;
47167;SDS011;32931;47.778;17.806;2023-07-13T09:31:24;4.93;;;2.30;;
47167;SDS011;32931;47.778;17.806;2023-07-13T09:33:57;6.00;;;2.20;;
47167;SDS011;32931;47.778;17.806;2023-07-13T09:36:28;8.18;;;2.13;;
47167;SDS011;32931;47.778;17.806;2023-07-13T09:39:04;3.15;;;2.22;;
47167;SDS011;32931;47.778;17.806;2023-07-13T09:44:17;8.43;;;2.45;;
47167;SDS011;32931;47.778;17.806;2023-07-13T09:46:53;6.05;;;2.45;;
47167;SDS011;32931;47.778;17.806;2023-07-13T09:49:24;8.15;;;2.20;;
47167;SDS011;32931;47.778;17.806;2023-07-13T09:52:02;4.50;;;2.35;;
47167;SDS011;32931;47.778;17.806;2023-07-13T09:54:32;8.20;;;2.45;;
47167;SDS011;32931;47.778;17.806;2023-07-13T09:57:00;5.55;;;2.75;;
47167;SDS011;32931;47.778;17.806;2023-07-13T09:59:35;4.07;;;2.53;;
47167;SDS011;32931;47.778;17.806;2023-07-13T10:04:59;7.32;;;2.42;;
47167;SDS011;32931;47.778;17.806;2023-07-13T10:07:31;4.35;;;2.30;;
47167;SDS011;32931;47.778;17.806;2023-07-13T10:09:59;5.18;;;2.75;;
47167;SDS011;32931;47.778;17.806;2023-07-13T10:12:27;3.38;;;1.92;;
47167;SDS011;32931;47.778;17.806;2023-07-13T10:14:56;6.72;;;2.15;;
47167;SDS011;32931;47.778;17.806;2023-07-13T10:17:28;4.97;;;2.38;;
47167;SDS011;32931;47.778;17.806;2023-07-13T10:20:01;7.97;;;2.45;;
47167;SDS011;32931;47.778;17.806;2023-07-13T10:22:50;4.90;;;2.20;;
47167;SDS011;32931;47.778;17.806;2023-07-13T10:25:25;9.45;;;2.53;;
47167;SDS011;32931;47.778;17.806;2023-07-13T10:27:58;9.95;;;2.72;;
47167;SDS011;32931;47.778;17.806;2023-07-13T10:30:49;4.28;;;2.10;;
47167;SDS011;32931;47.778;17.806;2023-07-13T10:33:18;3.58;;;2.35;;
47167;SDS011;32931;47.778;17.806;2023-07-13T10:35:46;6.13;;;2.58;;
47167;SDS011;32931;47.778;17.806;2023-07-13T10:38:15;3.47;;;2.15;;
47167;SDS011;32931;47.778;17.806;2023-07-13T10:43:25;3.22;;;2.30;;
47167;SDS011;32931;47.778;17.806;2023-07-13T10:46:08;2.63;;;2.00;;
47167;SDS011;32931;47.778;17.806;2023-07-13T10:48:37;6.40;;;2.72;;
47167;SDS011;32931;47.778;17.806;2023-07-13T10:51:05;4.45;;;2.40;;
47167;SDS011;32931;47.778;17.806;2023-07-13T10:53:33;6.20;;;2.47;;
47167;SDS011;32931;47.778;17.806;2023-07-13T10:56:02;6.45;;;2.10;;
47167;SDS011;32931;47.778;17.806;2023-07-13T10:58:37;4.82;;;2.30;;
47167;SDS011;32931;47.778;17.806;2023-07-13T11:01:15;3.67;;;1.90;;
47167;SDS011;32931;47.778;17.806;2023-07-13T11:06:13;3.53;;;1.83;;
47167;SDS011;32931;47.778;17.806;2023-07-13T11:19:08;2.63;;;1.80;;
47167;SDS011;32931;47.778;17.806;2023-07-13T11:22:13;3.17;;;1.70;;
47167;SDS011;32931;47.778;17.806;2023-07-13T11:32:51;5.25;;;1.70;;
47167;SDS011;32931;47.778;17.806;2023-07-13T11:36:12;4.93;;;1.88;;
47167;SDS011;32931;47.778;17.806;2023-07-13T11:43:42;2.75;;;1.45;;
47167;SDS011;32931;47.778;17.806;2023-07-13T11:46:16;4.60;;;1.40;;
47167;SDS011;32931;47.778;17.806;2023-07-13T11:48:48;3.63;;;1.58;;
47167;SDS011;32931;47.778;17.806;2023-07-13T11:51:18;6.53;;;1.73;;
47167;SDS011;32931;47.778;17.806;2023-07-13T11:54:06;4.63;;;1.70;;
47167;SDS011;32931;47.778;17.806;2023-07-13T11:56:55;2.17;;;1.42;;
47167;SDS011;32931;47.778;17.806;2023-07-13T11:59:26;4.32;;;1.80;;
47167;SDS011;32931;47.778;17.806;2023-07-13T12:01:53;3.38;;;1.73;;
47167;SDS011;32931;47.778;17.806;2023-07-13T12:04:30;4.43;;;1.45;;
47167;SDS011;32931;47.778;17.806;2023-07-13T12:07:03;3.60;;;1.42;;
47167;SDS011;32931;47.778;17.806;2023-07-13T12:09:30;2.38;;;1.20;;
47167;SDS011;32931;47.778;17.806;2023-07-13T12:11:57;7.30;;;1.73;;
47167;SDS011;32931;47.778;17.806;2023-07-13T12:14:25;3.88;;;1.83;;
47167;SDS011;32931;47.778;17.806;2023-07-13T12:16:52;4.43;;;1.48;;
47167;SDS011;32931;47.778;17.806;2023-07-13T12:19:25;5.28;;;1.50;;
47167;SDS011;32931;47.778;17.806;2023-07-13T12:21:53;3.97;;;1.67;;
47167;SDS011;32931;47.778;17.806;2023-07-13T12:24:21;5.65;;;1.50;;
47167;SDS011;32931;47.778;17.806;2023-07-13T12:26:53;2.42;;;1.42;;
47167;SDS011;32931;47.778;17.806;2023-07-13T12:29:25;4.25;;;1.30;;
47167;SDS011;32931;47.778;17.806;2023-07-13T12:31:51;3.75;;;1.38;;
47167;SDS011;32931;47.778;17.806;2023-07-13T12:34:18;3.40;;;1.60;;
47167;SDS011;32931;47.778;17.806;2023-07-13T12:36:53;11.02;;;1.90;;
47167;SDS011;32931;47.778;17.806;2023-07-13T12:39:45;5.35;;;1.80;;
47167;SDS011;32931;47.778;17.806;2023-07-13T12:42:21;3.53;;;1.55;;
47167;SDS011;32931;47.778;17.806;2023-07-13T12:44:57;1.77;;;1.40;;
47167;SDS011;32931;47.778;17.806;2023-07-13T12:47:26;2.83;;;1.70;;
47167;SDS011;32931;47.778;17.806;2023-07-13T12:49:55;3.70;;;1.55;;
47167;SDS011;32931;47.778;17.806;2023-07-13T12:52:29;3.53;;;1.80;;
47167;SDS011;32931;47.778;17.806;2023-07-13T12:55:12;6.35;;;1.70;;
47167;SDS011;32931;47.778;17.806;2023-07-13T13:00:28;2.72;;;1.40;;
47167;SDS011;32931;47.778;17.806;2023-07-13T13:03:05;5.70;;;1.85;;
47167;SDS011;32931;47.778;17.806;2023-07-13T13:05:33;5.20;;;1.98;;
47167;SDS011;32931;47.778;17.806;2023-07-13T13:07:59;4.63;;;1.90;;
47167;SDS011;32931;47.778;17.806;2023-07-13T13:10:25;5.38;;;1.73;;
47167;SDS011;32931;47.778;17.806;2023-07-13T13:12:52;2.33;;;1.80;;
47167;SDS011;32931;47.778;17.806;2023-07-13T13:15:18;4.45;;;1.90;;
47167;SDS011;32931;47.778;17.806;2023-07-13T13:17:44;3.50;;;1.70;;
47167;SDS011;32931;47.778;17.806;2023-07-13T13:20:18;5.43;;;1.92;;
47167;SDS011;32931;47.778;17.806;2023-07-13T13:22:45;5.57;;;1.98;;
47167;SDS011;32931;47.778;17.806;2023-07-13T13:25:12;3.90;;;2.10;;
47167;SDS011;32931;47.778;17.806;2023-07-13T13:27:42;3.40;;;1.83;;
47167;SDS011;32931;47.778;17.806;2023-07-13T13:30:13;2.85;;;1.88;;
47167;SDS011;32931;47.778;17.806;2023-07-13T13:32:42;3.28;;;1.90;;
47167;SDS011;32931;47.778;17.806;2023-07-13T13:35:16;4.53;;;1.95;;
47167;SDS011;32931;47.778;17.806;2023-07-13T13:37:44;5.97;;;2.38;;
47167;SDS011;32931;47.778;17.806;2023-07-13T13:40:18;4.18;;;1.80;;
47167;SDS011;32931;47.778;17.806;2023-07-13T13:42:46;4.97;;;1.77;;
47167;SDS011;32931;47.778;17.806;2023-07-13T13:45:12;7.18;;;2.25;;
47167;SDS011;32931;47.778;17.806;2023-07-13T13:47:39;4.53;;;1.85;;
47167;SDS011;32931;47.778;17.806;2023-07-13T13:50:16;6.65;;;2.10;;
47167;SDS011;32931;47.778;17.806;2023-07-13T13:52:45;4.30;;;1.90;;
47167;SDS011;32931;47.778;17.806;2023-07-13T13:55:20;3.20;;;1.85;;
47167;SDS011;32931;47.778;17.806;2023-07-13T13:57:49;5.95;;;2.08;;
47167;SDS011;32931;47.778;17.806;2023-07-13T14:00:15;6.85;;;2.08;;
47167;SDS011;32931;47.778;17.806;2023-07-13T14:02:46;4.20;;;2.17;;
47167;SDS011;32931;47.778;17.806;2023-07-13T14:05:15;7.22;;;2.08;;
47167;SDS011;32931;47.778;17.806;2023-07-13T14:07:46;4.43;;;2.00;;
47167;SDS011;32931;47.778;17.806;2023-07-13T14:10:14;6.88;;;2.15;;
47167;SDS011;32931;47.778;17.806;2023-07-13T14:12:42;3.70;;;2.00;;
47167;SDS011;32931;47.778;17.806;2023-07-13T14:15:21;5.15;;;2.08;;
47167;SDS011;32931;47.778;17.806;2023-07-13T14:17:49;7.50;;;2.08;;
47167;SDS011;32931;47.778;17.806;2023-07-13T14:20:16;6.97;;;2.35;;
47167;SDS011;32931;47.778;17.806;2023-07-13T14:22:43;4.38;;;2.17;;
47167;SDS011;32931;47.778;17.806;2023-07-13T14:25:13;3.85;;;1.88;;
47167;SDS011;32931;47.778;17.806;2023-07-13T14:27:41;7.78;;;1.80;;
47167;SDS011;32931;47.778;17.806;2023-07-13T14:30:12;4.70;;;2.22;;
47167;SDS011;32931;47.778;17.806;2023-07-13T14:32:43;6.88;;;2.13;;
47167;SDS011;32931;47.778;17.806;2023-07-13T14:35:13;5.85;;;1.88;;
47167;SDS011;32931;47.778;17.806;2023-07-13T14:37:40;3.72;;;1.90;;
47167;SDS011;32931;47.778;17.806;2023-07-13T14:40:14;3.75;;;1.92;;
47167;SDS011;32931;47.778;17.806;2023-07-13T14:42:47;6.88;;;2.00;;
47167;SDS011;32931;47.778;17.806;2023-07-13T14:45:17;7.65;;;1.90;;
47167;SDS011;32931;47.778;17.806;2023-07-13T14:47:45;3.20;;;2.10;;
47167;SDS011;32931;47.778;17.806;2023-07-13T14:50:32;4.85;;;2.33;;
47167;SDS011;32931;47.778;17.806;2023-07-13T14:52:58;7.20;;;2.13;;
47167;SDS011;32931;47.778;17.806;2023-07-13T14:55:24;6.43;;;2.20;;
47167;SDS011;32931;47.778;17.806;2023-07-13T14:57:52;7.03;;;1.75;;
47167;SDS011;32931;47.778;17.806;2023-07-13T15:00:19;5.07;;;2.00;;
47167;SDS011;32931;47.778;17.806;2023-07-13T15:02:50;3.78;;;1.90;;
47167;SDS011;32931;47.778;17.806;2023-07-13T15:05:21;5.43;;;1.90;;
47167;SDS011;32931;47.778;17.806;2023-07-13T15:07:50;2.90;;;1.73;;
47167;SDS011;32931;47.778;17.806;2023-07-13T15:10:19;3.70;;;1.75;;
47167;SDS011;32931;47.778;17.806;2023-07-13T15:12:47;6.47;;;2.08;;
47167;SDS011;32931;47.778;17.806;2023-07-13T15:15:13;3.78;;;2.30;;
47167;SDS011;32931;47.778;17.806;2023-07-13T15:17:41;5.97;;;2.30;;
47167;SDS011;32931;47.778;17.806;2023-07-13T15:20:19;3.65;;;1.80;;
47167;SDS011;32931;47.778;17.806;2023-07-13T15:22:53;4.18;;;2.05;;
47167;SDS011;32931;47.778;17.806;2023-07-13T15:25:21;3.95;;;2.00;;
47167;SDS011;32931;47.778;17.806;2023-07-13T15:27:50;3.97;;;2.30;;
47167;SDS011;32931;47.778;17.806;2023-07-13T15:30:16;4.50;;;2.38;;
47167;SDS011;32931;47.778;17.806;2023-07-13T15:32:43;4.07;;;2.13;;
47167;SDS011;32931;47.778;17.806;2023-07-13T15:35:20;4.57;;;1.90;;